createdAt,value
2018-02-27T00:01:42.537Z,54.30
2018-02-27T00:04:09.347Z,53.90
2018-02-27T00:06:35.277Z,53.90
2018-02-27T00:09:01.248Z,53.90
2018-02-27T00:11:27.227Z,53.50
2018-02-27T00:13:53.148Z,53.80
2018-02-27T00:16:19.080Z,53.70
2018-02-27T00:18:45.765Z,53.20
2018-02-27T00:21:11.701Z,53.20
2018-02-27T00:23:37.764Z,53.60
2018-02-27T00:26:04.441Z,53.10
2018-02-27T00:28:30.431Z,53.00
2018-02-27T00:30:57.110Z,53.00
2018-02-27T00:33:23.266Z,52.90
2018-02-27T00:35:49.188Z,52.90
2018-02-27T00:38:15.127Z,52.90
2018-02-27T00:40:41.943Z,52.90
2018-02-27T00:43:07.862Z,52.90
2018-02-27T00:45:33.944Z,53.10
2018-02-27T00:47:59.874Z,53.30
2018-02-27T00:50:25.805Z,53.50
2018-02-27T00:52:51.772Z,54.00
2018-02-27T00:55:17.705Z,54.30
2018-02-27T00:57:43.710Z,54.50
2018-02-27T01:00:09.637Z,54.80
2018-02-27T01:02:35.724Z,54.90
2018-02-27T01:05:01.649Z,55.20
2018-02-27T01:07:27.576Z,55.10
2018-02-27T01:09:53.543Z,55.10
2018-02-27T01:12:20.220Z,55.20
2018-02-27T01:14:46.184Z,55.20
2018-02-27T01:17:12.121Z,55.10
2018-02-27T01:19:38.827Z,55.50
2018-02-27T01:22:04.908Z,55.50
2018-02-27T01:24:30.856Z,55.30
2018-02-27T01:26:56.824Z,55.20
2018-02-27T01:29:23.492Z,55.00
2018-02-27T01:31:49.421Z,55.00
2018-02-27T01:34:15.611Z,55.20
2018-02-27T01:36:42.347Z,55.80
2018-02-27T01:39:09.020Z,56.00
2018-02-27T01:41:34.941Z,56.00
2018-02-27T01:44:00.883Z,56.20
2018-02-27T01:46:26.812Z,56.20
2018-02-27T01:48:52.744Z,56.30
2018-02-27T01:51:18.704Z,56.40
2018-02-27T01:53:45.385Z,56.40
2018-02-27T01:56:11.454Z,56.40
2018-02-27T01:58:37.371Z,56.60
2018-02-27T02:01:03.356Z,57.20
2018-02-27T02:03:29.278Z,56.80
2018-02-27T02:05:55.231Z,57.00
2018-02-27T02:08:21.192Z,57.40
2018-02-27T02:10:47.113Z,57.60
2018-02-27T02:13:13.170Z,57.90
2018-02-27T02:15:39.108Z,58.00
2018-02-27T02:18:05.063Z,58.00
2018-02-27T02:20:31.735Z,57.80
2018-02-27T02:22:57.694Z,57.80
2018-02-27T02:25:23.628Z,57.80
2018-02-27T02:27:49.702Z,57.90
2018-02-27T02:30:15.693Z,57.80
2018-02-27T02:32:42.388Z,57.90
2018-02-27T02:35:08.482Z,57.90
2018-02-27T02:37:34.472Z,58.00
2018-02-27T02:40:01.180Z,58.00
2018-02-27T02:42:27.141Z,58.00
2018-02-27T02:44:53.831Z,57.80
2018-02-27T02:47:19.776Z,57.80
2018-02-27T02:49:45.845Z,57.80
2018-02-27T02:52:11.808Z,57.80
2018-02-27T02:54:37.771Z,57.70
2018-02-27T02:57:04.448Z,57.40
2018-02-27T02:59:30.518Z,57.30
2018-02-27T03:01:57.191Z,56.70
2018-02-27T03:04:23.141Z,56.70
2018-02-27T03:06:49.083Z,56.60
2018-02-27T03:09:15.041Z,56.90
2018-02-27T03:11:41.737Z,56.90
2018-02-27T03:14:07.681Z,56.80
2018-02-27T03:16:34.504Z,56.40
2018-02-27T03:19:01.218Z,56.40
2018-02-27T03:21:27.249Z,56.50
2018-02-27T03:23:53.208Z,56.10
2018-02-27T03:26:19.871Z,56.00
2018-02-27T03:28:45.830Z,55.90
2018-02-27T03:31:11.804Z,55.80
2018-02-27T03:33:38.628Z,55.30
2018-02-27T03:36:04.616Z,55.20
2018-02-27T03:38:30.556Z,55.20
2018-02-27T03:40:56.504Z,54.90
2018-02-27T03:43:23.318Z,54.70
2018-02-27T03:45:49.235Z,54.60
2018-02-27T03:48:15.208Z,54.60
2018-02-27T03:50:41.132Z,54.40
2018-02-27T03:53:07.084Z,54.20
2018-02-27T03:55:33.011Z,54.10
2018-02-27T03:57:59.092Z,53.80
2018-02-27T04:00:25.766Z,54.20
2018-02-27T04:02:51.696Z,54.30
2018-02-27T04:05:17.649Z,54.60
2018-02-27T04:07:43.572Z,55.00
2018-02-27T04:10:10.283Z,55.60
2018-02-27T04:12:36.212Z,55.60
2018-02-27T04:15:02.848Z,55.60
2018-02-27T04:17:28.769Z,55.70
2018-02-27T04:19:54.706Z,55.90
2018-02-27T04:22:20.664Z,56.00
2018-02-27T04:24:46.608Z,56.00
2018-02-27T04:27:12.587Z,56.00
2018-02-27T04:29:39.256Z,56.20
2018-02-27T04:32:05.326Z,56.20
2018-02-27T04:34:31.429Z,56.10
2018-02-27T04:36:57.365Z,56.20
2018-02-27T04:39:23.353Z,56.40
2018-02-27T04:41:50.080Z,56.50
2018-02-27T04:44:16.056Z,56.50
2018-02-27T04:46:42.000Z,56.60
2018-02-27T04:49:08.695Z,56.70
2018-02-27T04:51:34.643Z,56.60
2018-02-27T04:54:00.567Z,56.70
2018-02-27T04:56:26.631Z,56.70
2018-02-27T04:58:52.552Z,57.10
2018-02-27T05:01:18.500Z,57.20
2018-02-27T05:03:44.632Z,57.20
2018-02-27T05:06:10.559Z,57.30
2018-02-27T05:08:36.508Z,57.50
2018-02-27T05:11:02.421Z,57.40
2018-02-27T05:13:28.365Z,57.40
2018-02-27T05:15:55.040Z,57.80
2018-02-27T05:18:21.016Z,57.80
2018-02-27T05:20:46.948Z,57.50
2018-02-27T05:23:13.608Z,57.40
2018-02-27T05:25:39.689Z,57.50
2018-02-27T05:28:05.628Z,57.50
2018-02-27T05:30:32.396Z,57.40
2018-02-27T05:32:59.045Z,57.20
2018-02-27T05:35:25.967Z,57.30
2018-02-27T05:37:51.892Z,57.30
2018-02-27T05:40:17.817Z,57.20
2018-02-27T05:42:43.891Z,56.90
2018-02-27T05:45:09.826Z,56.80
2018-02-27T05:47:35.759Z,56.70
2018-02-27T05:50:02.573Z,56.20
2018-02-27T05:52:28.505Z,56.10
2018-02-27T05:54:54.463Z,56.20
2018-02-27T05:57:20.444Z,55.90
2018-02-27T05:59:46.374Z,55.60
2018-02-27T06:02:12.301Z,55.60
2018-02-27T06:04:38.411Z,55.80
2018-02-27T06:07:04.355Z,55.90
2018-02-27T06:09:30.296Z,55.70
2018-02-27T06:11:56.250Z,56.10
2018-02-27T06:14:22.202Z,56.10
2018-02-27T06:16:48.182Z,56.20
2018-02-27T06:19:14.124Z,56.50
2018-02-27T06:21:40.196Z,56.70
2018-02-27T06:24:06.868Z,57.10
2018-02-27T06:26:32.823Z,57.10
2018-02-27T06:28:58.751Z,57.30
2018-02-27T06:31:24.715Z,57.70
2018-02-27T06:33:51.677Z,57.90
2018-02-27T06:36:17.613Z,57.70
2018-02-27T06:38:43.618Z,57.80
2018-02-27T06:41:09.575Z,58.00
2018-02-27T06:43:35.504Z,57.90
2018-02-27T06:46:01.475Z,57.80
2018-02-27T06:48:27.451Z,57.70
2018-02-27T06:50:53.379Z,57.50
2018-02-27T06:53:19.308Z,57.70
2018-02-27T06:55:46.138Z,58.00
2018-02-27T06:58:12.062Z,57.90
2018-02-27T07:00:38.685Z,58.00
2018-02-27T07:03:04.646Z,57.90
2018-02-27T07:05:30.590Z,57.90
2018-02-27T07:07:56.649Z,58.00
2018-02-27T07:10:22.587Z,58.00
2018-02-27T07:12:48.532Z,58.50
2018-02-27T07:15:14.499Z,58.10
2018-02-27T07:17:40.472Z,58.30
2018-02-27T07:20:07.135Z,58.60
2018-02-27T07:22:33.227Z,58.60
2018-02-27T07:24:59.903Z,58.60
2018-02-27T07:27:25.859Z,58.50
2018-02-27T07:29:51.791Z,58.30
2018-02-27T07:32:17.868Z,58.60
2018-02-27T07:34:43.796Z,58.40
2018-02-27T07:37:09.733Z,58.00
2018-02-27T07:39:35.705Z,57.90
2018-02-27T07:42:01.779Z,57.90
2018-02-27T07:44:27.755Z,58.30
2018-02-27T07:46:54.444Z,58.40
2018-02-27T07:49:20.380Z,58.40
2018-02-27T07:51:46.312Z,58.10
2018-02-27T07:54:12.257Z,58.20
2018-02-27T07:56:38.981Z,58.10
2018-02-27T07:59:05.651Z,57.60
2018-02-27T08:01:32.336Z,57.20
2018-02-27T08:03:58.361Z,57.20
2018-02-27T08:06:24.278Z,57.30
2018-02-27T08:08:50.240Z,56.90
2018-02-27T08:11:16.912Z,57.40
2018-02-27T08:13:42.987Z,57.40
2018-02-27T08:16:08.956Z,57.20
2018-02-27T08:18:34.928Z,57.60
2018-02-27T08:21:00.868Z,57.20
2018-02-27T08:23:27.707Z,56.50
2018-02-27T08:25:54.382Z,56.50
2018-02-27T08:28:20.324Z,56.40
2018-02-27T08:30:46.317Z,56.80
2018-02-27T08:33:12.414Z,56.50
2018-02-27T08:35:39.128Z,55.80
2018-02-27T08:38:05.072Z,55.80
2018-02-27T08:40:31.888Z,55.40
2018-02-27T08:42:57.964Z,55.30
2018-02-27T08:45:23.935Z,54.90
2018-02-27T08:47:49.893Z,55.20
2018-02-27T08:50:16.563Z,55.70
2018-02-27T08:52:42.527Z,55.70
2018-02-27T08:55:08.452Z,54.80
2018-02-27T08:57:34.528Z,54.90
2018-02-27T09:00:00.463Z,54.90
2018-02-27T09:02:26.475Z,55.30
2018-02-27T09:04:52.415Z,54.90
2018-02-27T09:07:18.358Z,54.10
2018-02-27T09:09:44.316Z,54.30
2018-02-27T09:12:10.249Z,54.30
2018-02-27T09:14:36.224Z,54.20
2018-02-27T09:17:02.168Z,53.70
2018-02-27T09:19:29.000Z,53.40
2018-02-27T09:21:55.672Z,53.80
2018-02-27T09:24:21.611Z,53.80
2018-02-27T09:26:47.589Z,53.80
2018-02-27T09:29:13.519Z,52.60
2018-02-27T09:31:39.497Z,53.00
2018-02-27T09:34:05.439Z,53.10
2018-02-27T09:36:31.365Z,52.70
2018-02-27T09:38:58.191Z,52.80
2018-02-27T09:41:24.287Z,52.80
2018-02-27T09:43:50.269Z,53.00
2018-02-27T09:46:16.949Z,53.20
2018-02-27T09:48:43.015Z,53.20
2018-02-27T09:51:08.948Z,54.00
2018-02-27T09:53:35.670Z,52.80
2018-02-27T09:56:01.605Z,52.70
2018-02-27T09:58:28.288Z,51.50
2018-02-27T10:00:54.252Z,51.50
2018-02-27T10:03:20.184Z,51.10
2018-02-27T10:05:46.261Z,50.40
2018-02-27T10:08:12.195Z,50.30
2018-02-27T10:10:38.168Z,50.10
2018-02-27T10:13:04.099Z,50.10
2018-02-27T10:15:30.031Z,50.80
2018-02-27T10:17:56.031Z,50.80
2018-02-27T10:20:21.993Z,50.50
2018-02-27T10:22:48.074Z,51.10
2018-02-27T10:25:14.751Z,51.70
2018-02-27T10:27:40.767Z,51.70
2018-02-27T10:30:06.757Z,51.80
2018-02-27T10:32:33.424Z,50.80
2018-02-27T10:34:59.395Z,50.80
2018-02-27T10:37:25.330Z,49.80
2018-02-27T10:39:52.153Z,49.60
2018-02-27T10:42:18.239Z,49.50
2018-02-27T10:44:44.227Z,50.20
2018-02-27T10:47:10.177Z,49.00
2018-02-27T10:49:36.153Z,49.20
2018-02-27T10:52:02.115Z,49.30
2018-02-27T10:54:28.063Z,49.20
2018-02-27T10:56:54.068Z,48.60
2018-02-27T10:59:20.096Z,48.40
2018-02-27T11:01:46.784Z,49.30
2018-02-27T11:04:12.735Z,49.30
2018-02-27T11:06:38.706Z,48.80
2018-02-27T11:09:04.645Z,48.60
2018-02-27T11:11:30.606Z,49.10
2018-02-27T11:13:56.597Z,48.80
2018-02-27T11:16:23.281Z,50.20
2018-02-27T11:18:49.405Z,50.20
2018-02-27T11:21:15.331Z,50.10
2018-02-27T11:23:41.328Z,49.80
2018-02-27T11:26:07.274Z,50.50
2018-02-27T11:28:33.298Z,50.20
2018-02-27T11:30:59.241Z,50.10
2018-02-27T11:33:25.196Z,50.00
2018-02-27T11:35:51.931Z,49.20
2018-02-27T11:38:18.608Z,51.00
2018-02-27T11:40:44.760Z,50.70
2018-02-27T11:43:10.696Z,50.10
2018-02-27T11:45:36.652Z,49.80
2018-02-27T11:48:02.740Z,48.80
2018-02-27T11:50:28.688Z,47.60
2018-02-27T11:52:55.402Z,47.70
2018-02-27T11:55:21.364Z,47.70
2018-02-27T11:57:48.065Z,47.40
2018-02-27T12:00:14.065Z,47.40
2018-02-27T12:02:40.040Z,48.70
2018-02-27T12:05:06.875Z,48.50
2018-02-27T12:07:33.582Z,47.10
2018-02-27T12:09:59.525Z,47.10
2018-02-27T12:12:25.613Z,45.80
2018-02-27T12:14:51.564Z,45.80
2018-02-27T12:17:17.522Z,44.80
2018-02-27T12:19:44.212Z,45.40
2018-02-27T12:22:10.204Z,45.40
2018-02-27T12:24:36.146Z,44.30
2018-02-27T12:27:02.261Z,44.80
2018-02-27T12:29:28.980Z,43.70
2018-02-27T12:31:54.960Z,43.80
2018-02-27T12:34:21.061Z,44.10
2018-02-27T12:36:47.036Z,42.90
2018-02-27T12:39:13.048Z,44.20
2018-02-27T12:41:39.733Z,43.00
2018-02-27T12:44:05.728Z,43.00
2018-02-27T12:46:31.665Z,42.80
2018-02-27T12:48:57.611Z,42.60
2018-02-27T12:51:23.578Z,42.80
2018-02-27T12:53:49.524Z,42.60
2018-02-27T12:56:15.609Z,43.50
2018-02-27T12:58:41.575Z,43.10
2018-02-27T13:01:08.265Z,44.40
2018-02-27T13:03:34.356Z,44.40
2018-02-27T13:06:00.333Z,44.90
2018-02-27T13:08:26.277Z,44.60
2018-02-27T13:10:52.290Z,45.80
2018-02-27T13:13:18.978Z,44.30
2018-02-27T13:15:44.937Z,44.30
2018-02-27T13:18:11.638Z,45.70
2018-02-27T13:20:37.632Z,45.70
2018-02-27T13:23:03.600Z,43.70
2018-02-27T13:25:29.574Z,44.70
2018-02-27T13:27:55.623Z,42.30
2018-02-27T13:30:21.567Z,42.40
2018-02-27T13:32:47.573Z,41.80
2018-02-27T13:35:13.659Z,42.50
2018-02-27T13:37:39.639Z,42.80
2018-02-27T13:40:05.576Z,42.30
2018-02-27T13:42:32.424Z,41.40
2018-02-27T13:44:59.122Z,40.60
2018-02-27T13:47:25.062Z,40.60
2018-02-27T13:49:51.057Z,41.50
2018-02-27T13:52:17.069Z,41.60
2018-02-27T13:54:43.764Z,42.40
2018-02-27T13:57:10.446Z,42.40
2018-02-27T13:59:36.554Z,42.40
2018-02-27T14:02:02.513Z,42.30
2018-02-27T14:04:28.517Z,43.10
2018-02-27T14:06:54.474Z,42.60
2018-02-27T14:09:20.413Z,43.40
2018-02-27T14:11:46.401Z,43.30
2018-02-27T14:14:12.354Z,44.30
2018-02-27T14:16:38.450Z,44.30
2018-02-27T14:19:04.405Z,43.70
2018-02-27T14:21:31.144Z,42.40
2018-02-27T14:23:57.108Z,42.40
2018-02-27T14:26:23.048Z,42.10
2018-02-27T14:28:49.174Z,41.80
2018-02-27T14:31:15.220Z,40.90
2018-02-27T14:33:41.319Z,40.50
2018-02-27T14:36:07.273Z,40.40
2018-02-27T14:38:33.244Z,40.90
2018-02-27T14:40:59.189Z,41.20
2018-02-27T14:43:25.176Z,41.30
2018-02-27T14:45:51.136Z,41.10
2018-02-27T14:48:17.069Z,41.20
2018-02-27T14:50:43.149Z,42.40
2018-02-27T14:53:09.109Z,42.90
2018-02-27T14:55:35.088Z,42.70
2018-02-27T14:58:01.036Z,42.10
2018-02-27T15:00:27.025Z,42.20
2018-02-27T15:02:53.698Z,42.40
2018-02-27T15:05:19.788Z,42.40
2018-02-27T15:07:46.483Z,42.10
2018-02-27T15:10:12.448Z,42.10
2018-02-27T15:12:39.164Z,42.70
2018-02-27T15:15:05.248Z,42.60
2018-02-27T15:17:31.209Z,43.10
2018-02-27T15:19:57.943Z,41.90
2018-02-27T15:22:23.876Z,42.00
2018-02-27T15:24:50.612Z,42.80
2018-02-27T15:27:16.556Z,42.90
2018-02-27T15:29:43.259Z,42.90
2018-02-27T15:32:09.231Z,42.90
2018-02-27T15:34:35.349Z,43.00
2018-02-27T15:37:01.332Z,42.70
2018-02-27T15:39:27.288Z,43.00
2018-02-27T15:41:53.288Z,42.90
2018-02-27T15:44:19.983Z,42.00
2018-02-27T15:46:46.083Z,42.00
2018-02-27T15:49:12.052Z,42.20
2018-02-27T15:51:38.003Z,42.30
2018-02-27T15:54:04.728Z,42.60
2018-02-27T15:56:30.701Z,42.60
2018-02-27T15:58:56.652Z,42.40
2018-02-27T16:01:22.587Z,42.10
2018-02-27T16:03:48.692Z,42.40
2018-02-27T16:06:14.677Z,42.20
2018-02-27T16:08:40.628Z,42.30
2018-02-27T16:11:06.581Z,42.30
2018-02-27T16:13:32.592Z,42.40
2018-02-27T16:15:58.520Z,42.60
2018-02-27T16:18:24.496Z,42.80
2018-02-27T16:20:50.445Z,42.10
2018-02-27T16:23:16.413Z,42.40
2018-02-27T16:25:43.154Z,42.60
2018-02-27T16:28:09.838Z,43.40
2018-02-27T16:30:35.857Z,43.40
2018-02-27T16:33:01.802Z,43.40
2018-02-27T16:35:27.892Z,43.50
2018-02-27T16:37:54.008Z,43.60
2018-02-27T16:40:19.967Z,43.80
2018-02-27T16:42:45.934Z,43.70
2018-02-27T16:45:12.625Z,44.70
2018-02-27T16:47:38.715Z,44.70
2018-02-27T16:50:04.676Z,44.90
2018-02-27T16:52:30.650Z,45.00
2018-02-27T16:54:57.332Z,44.60
2018-02-27T16:57:23.344Z,44.60
2018-02-27T16:59:49.302Z,44.50
2018-02-27T17:02:15.248Z,44.50
2018-02-27T17:04:42.002Z,43.90
2018-02-27T17:07:07.948Z,43.90
2018-02-27T17:09:33.975Z,44.00
2018-02-27T17:11:59.913Z,44.70
2018-02-27T17:14:25.892Z,44.40
2018-02-27T17:16:51.831Z,44.30
2018-02-27T17:19:17.844Z,44.20
2018-02-27T17:21:43.792Z,44.10
2018-02-27T17:24:09.729Z,44.60
2018-02-27T17:26:35.853Z,44.70
2018-02-27T17:29:01.804Z,45.10
2018-02-27T17:31:27.782Z,44.70
2018-02-27T17:33:53.874Z,44.80
2018-02-27T17:36:19.831Z,44.80
2018-02-27T17:38:45.840Z,44.90
2018-02-27T17:41:11.829Z,44.90
2018-02-27T17:43:37.825Z,45.00
2018-02-27T17:46:03.789Z,45.00
2018-02-27T17:48:29.759Z,44.90
2018-02-27T17:50:55.726Z,44.90
2018-02-27T17:53:21.757Z,44.70
2018-02-27T17:55:47.687Z,44.30
2018-02-27T17:58:13.625Z,44.50
2018-02-27T18:00:39.587Z,44.50
2018-02-27T18:03:05.550Z,44.50
2018-02-27T18:05:31.517Z,44.30
2018-02-27T18:07:57.473Z,44.20
2018-02-27T18:10:24.242Z,44.20
2018-02-27T18:12:50.178Z,44.10
2018-02-27T18:15:16.313Z,44.10
2018-02-27T18:17:42.315Z,44.50
2018-02-27T18:20:08.302Z,44.00
2018-02-27T18:22:35.001Z,43.80
2018-02-27T18:25:00.983Z,43.80
2018-02-27T18:27:26.958Z,43.80
2018-02-27T18:29:52.903Z,43.90
2018-02-27T18:32:19.693Z,44.10
2018-02-27T18:34:45.795Z,44.00
2018-02-27T18:37:11.757Z,44.00
2018-02-27T18:53:43.922Z,43.80
2018-02-27T18:56:09.869Z,44.20
2018-02-27T18:58:36.570Z,44.20
2018-02-27T19:01:02.548Z,44.20
2018-02-27T19:03:28.522Z,44.30
2018-02-27T19:05:54.477Z,44.20
2018-02-27T19:08:20.425Z,44.30
2018-02-27T19:10:46.444Z,44.40
2018-02-27T19:13:12.400Z,44.10
2018-02-27T19:15:38.361Z,43.80
2018-02-27T19:18:05.073Z,44.40
2018-02-27T19:20:31.013Z,44.40
2018-02-27T19:22:57.052Z,44.40
2018-02-27T19:25:23.751Z,44.10
2018-02-27T19:27:49.734Z,44.10
2018-02-27T19:30:15.689Z,44.30
2018-02-27T19:32:41.659Z,44.20
2018-02-27T19:35:08.485Z,44.10
2018-02-27T19:37:34.597Z,44.10
2018-02-27T19:40:00.537Z,44.00
2018-02-27T19:42:26.456Z,44.00
2018-02-27T19:44:53.190Z,44.10
2018-02-27T19:47:19.161Z,44.10
2018-02-27T19:49:45.259Z,44.40
2018-02-27T19:52:11.935Z,44.50
2018-02-27T19:54:37.910Z,44.40
2018-02-27T19:57:04.592Z,45.10
2018-02-27T19:59:30.580Z,45.00
2018-02-27T20:01:57.280Z,45.30
2018-02-27T20:04:23.318Z,45.30
2018-02-27T20:06:49.268Z,45.30
2018-02-27T20:09:15.944Z,45.40
2018-02-27T20:11:41.921Z,45.40
2018-02-27T20:14:08.622Z,45.40
2018-02-27T20:16:34.620Z,45.30
2018-02-27T20:19:00.623Z,45.20
2018-02-27T20:21:26.645Z,45.60
2018-02-27T20:23:52.602Z,45.60
2018-02-27T20:26:18.576Z,45.90
2018-02-27T20:28:45.260Z,45.90
2018-02-27T20:31:11.246Z,45.90
2018-02-27T20:33:37.366Z,45.70
2018-02-27T20:36:04.037Z,46.30
2018-02-27T20:38:30.051Z,46.30
2018-02-27T20:40:56.013Z,46.10
2018-02-27T20:43:22.117Z,46.10
2018-02-27T20:45:48.060Z,46.30
2018-02-27T20:48:14.020Z,46.20
2018-02-27T20:50:40.703Z,46.30
2018-02-27T20:53:06.677Z,46.30
2018-02-27T20:55:33.352Z,46.50
2018-02-27T20:57:59.441Z,46.50
2018-02-27T21:00:26.155Z,46.50
2018-02-27T21:02:52.152Z,46.50
2018-02-27T21:05:18.159Z,46.40
2018-02-27T21:07:44.104Z,46.50
2018-02-27T21:10:10.052Z,46.80
2018-02-27T21:12:36.002Z,46.80
2018-02-27T21:15:02.098Z,47.30
2018-02-27T21:17:28.027Z,47.00
2018-02-27T21:19:54.724Z,46.90
2018-02-27T21:22:20.653Z,46.90
2018-02-27T21:24:46.592Z,47.00
2018-02-27T21:27:12.576Z,47.20
2018-02-27T21:29:38.529Z,47.20
2018-02-27T21:32:04.615Z,47.40
2018-02-27T21:34:30.565Z,47.50
2018-02-27T21:36:56.551Z,47.50
2018-02-27T21:39:22.524Z,47.70
2018-02-27T21:41:49.616Z,48.30
2018-02-27T21:44:15.629Z,48.30
2018-02-27T21:46:41.560Z,47.90
2018-02-27T21:49:07.504Z,47.80
2018-02-27T21:51:33.488Z,47.60
2018-02-27T21:53:59.416Z,47.50
2018-02-27T21:56:26.284Z,47.50
2018-02-27T21:58:52.206Z,47.50
2018-02-27T22:01:18.141Z,47.80
2018-02-27T22:03:44.213Z,47.80
2018-02-27T22:06:10.884Z,48.20
2018-02-27T22:08:36.857Z,48.10
2018-02-27T22:11:02.802Z,48.30
2018-02-27T22:13:29.545Z,48.20
2018-02-27T22:15:56.237Z,48.50
2018-02-27T22:18:22.182Z,48.50
2018-02-27T22:20:48.271Z,48.50
2018-02-27T22:23:14.223Z,48.30
2018-02-27T22:25:40.185Z,48.30
2018-02-27T22:28:06.168Z,48.20
2018-02-27T22:30:32.086Z,48.10
2018-02-27T22:32:58.049Z,47.90
2018-02-27T22:35:23.975Z,48.40
2018-02-27T22:37:49.936Z,48.00
2018-02-27T22:40:15.874Z,48.00
2018-02-27T22:42:41.976Z,48.20
2018-02-27T22:45:07.920Z,48.30
2018-02-27T22:47:34.007Z,48.70
2018-02-27T22:49:59.959Z,48.90
2018-02-27T22:52:25.939Z,49.00
2018-02-27T22:54:51.899Z,49.10
2018-02-27T22:57:17.835Z,49.20
2018-02-27T22:59:43.812Z,49.10
2018-02-27T23:02:09.752Z,49.30
2018-02-27T23:04:35.816Z,49.40
2018-02-27T23:07:02.495Z,49.40
2018-02-27T23:09:28.436Z,49.30
2018-02-27T23:11:54.395Z,49.50
2018-02-27T23:14:20.330Z,49.50
2018-02-27T23:16:47.019Z,49.40
2018-02-27T23:19:12.951Z,49.40
2018-02-27T23:21:39.029Z,49.80
2018-02-27T23:24:04.954Z,49.80
2018-02-27T23:26:30.944Z,49.70
2018-02-27T23:28:56.885Z,49.80
2018-02-27T23:31:23.592Z,49.60
2018-02-27T23:33:49.683Z,49.60
2018-02-27T23:36:15.608Z,49.90
2018-02-27T23:38:41.674Z,50.30
2018-02-27T23:41:07.608Z,50.40
2018-02-27T23:43:34.338Z,50.60
2018-02-27T23:46:01.045Z,50.80
2018-02-27T23:48:27.028Z,50.70
2018-02-27T23:50:52.960Z,50.80
2018-02-27T23:53:19.071Z,51.20
2018-02-27T23:55:45.007Z,51.40
2018-02-27T23:58:10.966Z,51.30
